createdAt,value
2018-09-20T00:00:46.795Z,6.30
2018-09-20T00:03:15.464Z,4.23
2018-09-20T00:05:44.075Z,5.57
2018-09-20T00:08:12.698Z,5.10
2018-09-20T00:10:41.296Z,4.77
2018-09-20T00:13:09.987Z,5.37
2018-09-20T00:15:38.669Z,4.73
2018-09-20T00:18:07.428Z,4.40
2018-09-20T00:20:36.068Z,4.80
2018-09-20T00:23:04.696Z,5.17
2018-09-20T00:25:33.400Z,6.43
2018-09-20T00:28:02.075Z,4.73
2018-09-20T00:30:30.700Z,4.57
2018-09-20T00:32:59.310Z,5.07
2018-09-20T00:35:27.987Z,5.73
2018-09-20T00:37:56.652Z,6.20
2018-09-20T00:40:25.292Z,5.10
2018-09-20T00:42:53.962Z,5.57
2018-09-20T00:45:22.599Z,5.50
2018-09-20T00:47:51.236Z,5.13
2018-09-20T00:50:19.986Z,5.50
2018-09-20T00:52:48.991Z,5.70
2018-09-20T00:55:17.619Z,6.30
2018-09-20T00:57:46.227Z,5.37
2018-09-20T01:00:14.889Z,5.90
2018-09-20T01:02:43.735Z,6.93
2018-09-20T01:05:12.400Z,5.90
2018-09-20T01:07:41.050Z,5.67
2018-09-20T01:10:09.717Z,6.00
2018-09-20T01:12:38.339Z,6.20
2018-09-20T01:15:07.815Z,5.30
2018-09-20T01:17:36.534Z,5.80
2018-09-20T01:20:05.279Z,6.77
2018-09-20T01:22:33.980Z,6.10
2018-09-20T01:25:02.616Z,6.53
2018-09-20T01:27:31.252Z,7.20
2018-09-20T01:29:59.852Z,6.60
2018-09-20T01:32:28.498Z,6.00
2018-09-20T01:34:57.183Z,6.43
2018-09-20T01:37:25.784Z,6.20
2018-09-20T01:39:54.411Z,5.97
2018-09-20T01:42:23.062Z,6.80
2018-09-20T01:44:51.728Z,6.47
2018-09-20T01:47:20.349Z,7.53
2018-09-20T01:49:48.970Z,6.50
2018-09-20T01:52:17.627Z,7.90
2018-09-20T01:54:46.245Z,6.90
2018-09-20T01:57:14.918Z,7.57
2018-09-20T01:59:43.564Z,7.30
2018-09-20T02:02:12.618Z,7.50
2018-09-20T02:04:41.227Z,7.67
2018-09-20T02:07:09.875Z,8.23
2018-09-20T02:09:38.547Z,8.17
2018-09-20T02:12:07.119Z,7.90
2018-09-20T02:14:35.802Z,7.53
2018-09-20T02:17:04.420Z,7.80
2018-09-20T02:19:32.997Z,7.70
2018-09-20T02:22:01.639Z,8.53
2018-09-20T02:24:30.288Z,7.87
2018-09-20T02:26:58.960Z,7.90
2018-09-20T02:29:27.535Z,7.80
2018-09-20T02:31:56.240Z,7.40
2018-09-20T02:34:24.860Z,10.07
2018-09-20T02:36:53.495Z,7.47
2018-09-20T02:39:22.164Z,8.40
2018-09-20T02:41:50.732Z,8.63
2018-09-20T02:44:19.672Z,7.80
2018-09-20T02:46:48.263Z,7.87
2018-09-20T02:49:16.987Z,7.97
2018-09-20T02:51:45.643Z,8.67
2018-09-20T02:54:14.287Z,6.90
2018-09-20T02:56:42.944Z,7.33
2018-09-20T02:59:11.575Z,8.27
2018-09-20T03:01:40.213Z,8.90
2018-09-20T03:04:08.930Z,7.90
2018-09-20T03:06:37.541Z,7.40
2018-09-20T03:09:07.931Z,8.27
2018-09-20T03:11:36.575Z,7.83
2018-09-20T03:14:05.192Z,7.53
2018-09-20T03:16:33.898Z,9.00
2018-09-20T03:19:02.647Z,7.57
2018-09-20T03:21:31.295Z,7.27
2018-09-20T03:24:00.185Z,7.57
2018-09-20T03:26:28.887Z,8.30
2018-09-20T03:28:57.589Z,8.07
2018-09-20T03:31:26.197Z,7.60
2018-09-20T03:33:54.787Z,8.03
2018-09-20T03:36:23.462Z,7.63
2018-09-20T03:38:52.423Z,8.10
2018-09-20T03:41:21.083Z,7.33
2018-09-20T03:43:49.719Z,8.87
2018-09-20T03:46:18.359Z,8.70
2018-09-20T03:48:46.943Z,7.70
2018-09-20T03:51:15.571Z,7.27
2018-09-20T03:53:44.186Z,8.77
2018-09-20T03:56:12.903Z,8.13
2018-09-20T03:58:41.515Z,8.70
2018-09-20T04:01:10.124Z,8.07
2018-09-20T04:03:38.758Z,8.20
2018-09-20T04:06:07.618Z,9.10
2018-09-20T04:08:36.567Z,8.63
2018-09-20T04:11:05.264Z,8.27
2018-09-20T04:13:33.931Z,7.63
2018-09-20T04:16:02.632Z,8.90
2018-09-20T04:18:31.287Z,9.33
2018-09-20T04:20:59.921Z,7.77
2018-09-20T04:23:28.583Z,8.27
2018-09-20T04:25:57.244Z,8.80
2018-09-20T04:28:25.862Z,8.10
2018-09-20T04:30:54.479Z,9.03
2018-09-20T04:33:23.147Z,9.30
2018-09-20T04:35:51.817Z,11.30
2018-09-20T04:38:20.429Z,8.30
2018-09-20T04:40:49.067Z,9.17
2018-09-20T04:43:17.718Z,9.17
2018-09-20T04:45:46.340Z,7.37
2018-09-20T04:48:14.952Z,9.27
2018-09-20T04:50:43.608Z,8.70
2018-09-20T04:53:12.242Z,7.90
2018-09-20T04:55:40.804Z,8.40
2018-09-20T04:58:09.424Z,8.93
2018-09-20T05:00:38.053Z,8.47
2018-09-20T05:03:06.860Z,8.50
2018-09-20T05:05:35.539Z,9.83
2018-09-20T05:08:04.144Z,9.50
2018-09-20T05:10:32.783Z,9.00
2018-09-20T05:13:01.454Z,10.60
2018-09-20T05:15:30.081Z,9.60
2018-09-20T05:17:58.803Z,8.00
2018-09-20T05:20:27.524Z,8.20
2018-09-20T05:22:56.099Z,9.37
2018-09-20T05:25:25.220Z,9.00
2018-09-20T05:27:54.168Z,10.10
2018-09-20T05:30:23.136Z,9.10
2018-09-20T05:32:52.192Z,8.20
2018-09-20T05:35:21.937Z,8.30
2018-09-20T05:37:50.742Z,9.00
2018-09-20T05:40:19.583Z,8.90
2018-09-20T05:42:49.408Z,9.13
2018-09-20T05:45:18.062Z,9.57
2018-09-20T05:47:47.133Z,8.07
2018-09-20T05:50:15.967Z,8.90
2018-09-20T05:52:44.611Z,7.80
2018-09-20T05:55:13.539Z,9.40
2018-09-20T05:57:42.160Z,8.70
2018-09-20T06:00:10.826Z,9.17
2018-09-20T06:02:39.479Z,9.67
2018-09-20T06:05:08.239Z,8.60
2018-09-20T06:07:36.900Z,9.97
2018-09-20T06:10:05.746Z,8.10
2018-09-20T06:12:34.355Z,8.47
2018-09-20T06:15:03.014Z,8.27
2018-09-20T06:17:31.690Z,9.50
2018-09-20T06:20:00.446Z,8.67
2018-09-20T06:22:29.031Z,8.23
2018-09-20T06:24:58.084Z,8.17
2018-09-20T06:27:26.783Z,8.47
2018-09-20T06:29:55.417Z,9.03
2018-09-20T06:32:24.075Z,8.70
2018-09-20T06:34:52.721Z,9.40
2018-09-20T06:37:21.374Z,8.67
2018-09-20T06:39:50.022Z,8.20
2018-09-20T06:42:18.787Z,9.10
2018-09-20T06:44:47.413Z,9.07
2018-09-20T06:47:16.075Z,9.40
2018-09-20T06:49:44.696Z,8.20
2018-09-20T06:52:13.335Z,9.23
2018-09-20T06:54:42.008Z,9.60
2018-09-20T06:57:10.647Z,9.30
2018-09-20T06:59:39.321Z,9.87
2018-09-20T07:02:08.023Z,8.87
2018-09-20T07:04:36.662Z,7.90
2018-09-20T07:07:05.270Z,8.47
2018-09-20T07:09:33.947Z,8.40
2018-09-20T07:12:02.534Z,8.90
2018-09-20T07:14:31.131Z,8.30
2018-09-20T07:16:59.806Z,8.57
2018-09-20T07:19:28.368Z,9.40
2018-09-20T07:21:57.007Z,8.23
2018-09-20T07:24:25.635Z,8.83
2018-09-20T07:26:54.283Z,8.27
2018-09-20T07:29:22.894Z,8.53
2018-09-20T07:31:51.499Z,8.60
2018-09-20T07:34:20.064Z,8.43
2018-09-20T07:36:48.622Z,8.70
2018-09-20T07:39:17.614Z,9.43
2018-09-20T07:41:46.203Z,8.43
2018-09-20T07:44:14.791Z,7.80
2018-09-20T07:46:43.394Z,7.50
2018-09-20T07:49:12.015Z,7.80
2018-09-20T07:51:40.639Z,8.17
2018-09-20T07:54:09.294Z,7.93
2018-09-20T07:56:37.980Z,7.10
2018-09-20T07:59:06.614Z,7.50
2018-09-20T08:01:35.222Z,7.30
2018-09-20T08:04:03.891Z,7.63
2018-09-20T08:06:32.466Z,6.40
2018-09-20T08:09:01.064Z,6.23
2018-09-20T08:11:29.726Z,6.93
2018-09-20T08:13:58.407Z,7.60
2018-09-20T08:16:27.011Z,6.70
2018-09-20T08:18:55.590Z,6.50
2018-09-20T08:21:24.227Z,7.57
2018-09-20T08:23:52.906Z,7.87
2018-09-20T08:26:21.573Z,8.00
2018-09-20T08:28:50.242Z,8.10
2018-09-20T08:31:18.834Z,6.57
2018-09-20T08:33:47.780Z,7.43
2018-09-20T08:36:16.377Z,7.07
2018-09-20T08:38:45.010Z,7.20
2018-09-20T08:41:13.663Z,7.70
2018-09-20T08:43:42.266Z,6.83
2018-09-20T08:46:10.859Z,8.00
2018-09-20T08:48:39.478Z,6.37
2018-09-20T08:51:08.162Z,7.07
2018-09-20T08:53:36.662Z,7.40
2018-09-20T08:56:05.299Z,7.10
2018-09-20T08:58:34.266Z,6.57
2018-09-20T09:01:04.236Z,6.80
2018-09-20T09:03:32.891Z,6.90
2018-09-20T09:06:01.903Z,5.70
2018-09-20T09:08:30.490Z,6.10
2018-09-20T09:10:59.111Z,5.37
2018-09-20T09:13:27.691Z,5.97
2018-09-20T09:15:56.306Z,5.70
2018-09-20T09:18:24.875Z,6.03
2018-09-20T09:20:53.535Z,5.77
2018-09-20T09:23:22.140Z,6.03
2018-09-20T09:25:50.763Z,5.73
2018-09-20T09:28:19.407Z,6.77
2018-09-20T09:30:48.005Z,6.00
2018-09-20T09:33:16.600Z,5.70
2018-09-20T09:35:45.222Z,5.07
2018-09-20T09:38:13.936Z,4.97
2018-09-20T09:40:42.579Z,5.33
2018-09-20T09:43:11.151Z,6.00
2018-09-20T09:45:39.774Z,4.93
2018-09-20T09:48:08.491Z,5.33
2018-09-20T09:50:37.055Z,5.43
2018-09-20T09:53:05.832Z,5.50
2018-09-20T09:55:34.446Z,4.90
2018-09-20T09:58:03.062Z,4.67
2018-09-20T10:00:33.615Z,3.63
2018-09-20T10:03:02.290Z,4.00
2018-09-20T10:05:30.906Z,4.20
2018-09-20T10:07:59.566Z,4.77
2018-09-20T10:10:28.242Z,3.93
2018-09-20T10:12:56.851Z,3.83
2018-09-20T10:15:25.462Z,4.73
2018-09-20T10:17:54.082Z,4.03
2018-09-20T10:20:22.723Z,4.37
2018-09-20T10:22:51.331Z,4.70
2018-09-20T10:25:19.923Z,4.10
2018-09-20T10:27:48.519Z,5.00
2018-09-20T10:30:17.180Z,4.20
2018-09-20T10:32:45.731Z,4.27
2018-09-20T10:35:14.339Z,4.30
2018-09-20T10:37:42.910Z,3.30
2018-09-20T10:40:11.535Z,4.50
2018-09-20T10:42:40.136Z,3.87
2018-09-20T10:45:08.735Z,3.60
2018-09-20T10:47:37.338Z,3.90
2018-09-20T10:50:06.102Z,3.70
2018-09-20T10:52:34.711Z,2.83
2018-09-20T10:55:03.352Z,3.40
2018-09-20T10:57:32.027Z,3.50
2018-09-20T11:00:00.675Z,2.90
2018-09-20T11:02:29.303Z,2.60
2018-09-20T11:04:57.890Z,3.37
2018-09-20T11:07:26.487Z,2.63
2018-09-20T11:10:01.659Z,3.70
2018-09-20T11:12:30.315Z,3.00
2018-09-20T11:14:58.919Z,2.93
2018-09-20T11:17:27.531Z,3.00
2018-09-20T11:19:56.171Z,3.10
2018-09-20T11:22:24.751Z,3.93
2018-09-20T11:24:53.631Z,2.50
2018-09-20T11:27:22.223Z,2.80
2018-09-20T11:29:50.847Z,2.63
2018-09-20T11:32:19.567Z,3.10
2018-09-20T11:34:48.177Z,2.73
2018-09-20T11:37:16.766Z,2.90
2018-09-20T11:39:45.616Z,2.97
2018-09-20T11:42:14.247Z,3.37
2018-09-20T11:44:42.855Z,2.60
2018-09-20T11:47:11.611Z,3.30
2018-09-20T11:49:40.262Z,2.60
2018-09-20T11:52:08.850Z,2.67
2018-09-20T11:54:37.419Z,2.73
2018-09-20T11:57:06.087Z,2.80
2018-09-20T11:59:34.834Z,3.30
2018-09-20T12:02:03.535Z,3.30
2018-09-20T12:04:32.170Z,3.17
2018-09-20T12:07:00.782Z,2.73
2018-09-20T12:09:29.404Z,2.93
2018-09-20T12:11:58.032Z,2.90
2018-09-20T12:14:26.610Z,2.80
2018-09-20T12:16:55.204Z,3.20
2018-09-20T12:19:23.809Z,3.30
2018-09-20T12:21:52.727Z,2.80
2018-09-20T12:24:27.980Z,3.40
2018-09-20T12:26:56.610Z,3.30
2018-09-20T12:29:25.356Z,3.90
2018-09-20T12:31:54.020Z,3.20
2018-09-20T12:34:22.610Z,3.30
2018-09-20T12:36:51.326Z,3.53
2018-09-20T12:39:19.950Z,2.80
2018-09-20T12:41:48.543Z,3.03
2018-09-20T12:44:17.126Z,3.40
2018-09-20T12:46:45.756Z,3.90
2018-09-20T12:49:14.366Z,2.90
2018-09-20T12:51:44.535Z,3.07
2018-09-20T12:54:13.162Z,2.93
2018-09-20T12:56:41.858Z,3.00
2018-09-20T12:59:10.511Z,3.30
2018-09-20T13:01:39.120Z,2.80
2018-09-20T13:04:07.855Z,2.63
2018-09-20T13:06:36.482Z,3.07
2018-09-20T13:09:08.180Z,2.80
2018-09-20T13:11:36.779Z,3.20
2018-09-20T13:14:05.395Z,3.03
2018-09-20T13:16:34.238Z,3.00
2018-09-20T13:19:02.827Z,3.20
2018-09-20T13:21:31.418Z,3.10
2018-09-20T13:24:00.095Z,4.70
2018-09-20T13:26:28.683Z,3.57
2018-09-20T13:28:57.299Z,3.40
2018-09-20T13:31:25.954Z,3.13
2018-09-20T13:33:54.591Z,3.57
2018-09-20T13:36:23.191Z,2.77
2018-09-20T13:38:51.826Z,3.07
2018-09-20T13:41:20.457Z,3.00
2018-09-20T13:43:49.196Z,2.77
2018-09-20T13:46:17.827Z,2.93
2018-09-20T13:48:46.999Z,2.80
2018-09-20T13:51:15.614Z,2.93
2018-09-20T13:53:44.219Z,3.23
2018-09-20T13:56:12.855Z,3.73
2018-09-20T13:58:45.665Z,2.90
2018-09-20T14:01:14.303Z,2.57
2018-09-20T14:03:43.004Z,2.67
2018-09-20T14:06:11.620Z,3.20
2018-09-20T14:08:40.239Z,3.20
2018-09-20T14:11:11.913Z,3.07
2018-09-20T14:13:40.562Z,3.00
2018-09-20T14:16:09.212Z,2.80
2018-09-20T14:18:37.803Z,2.83
2018-09-20T14:21:06.895Z,3.00
2018-09-20T14:23:35.585Z,2.77
2018-09-20T14:26:04.320Z,2.67
2018-09-20T14:28:32.946Z,2.90
2018-09-20T14:31:01.595Z,2.73
2018-09-20T14:33:30.269Z,3.10
2018-09-20T14:35:58.931Z,2.93
2018-09-20T14:38:27.779Z,2.87
2018-09-20T14:40:56.420Z,3.07
2018-09-20T14:43:25.024Z,2.67
2018-09-20T14:45:53.616Z,3.27
2018-09-20T14:48:22.248Z,2.90
2018-09-20T14:50:50.879Z,3.10
2018-09-20T14:53:19.494Z,3.00
2018-09-20T14:55:48.175Z,2.40
2018-09-20T14:58:17.006Z,3.10
2018-09-20T15:00:45.593Z,3.03
2018-09-20T15:03:14.567Z,2.53
2018-09-20T15:05:43.178Z,2.73
2018-09-20T15:08:11.854Z,3.10
2018-09-20T15:10:40.511Z,2.23
2018-09-20T15:13:09.411Z,3.03
2018-09-20T15:15:38.020Z,2.80
2018-09-20T15:18:06.661Z,3.50
2018-09-20T15:20:35.285Z,2.50
2018-09-20T15:23:03.936Z,2.80
2018-09-20T15:25:32.625Z,2.50
2018-09-20T15:28:01.311Z,2.70
2018-09-20T15:30:30.027Z,2.90
2018-09-20T15:32:58.743Z,2.97
2018-09-20T15:35:27.371Z,2.50
2018-09-20T15:37:55.943Z,2.70
2018-09-20T15:40:24.608Z,3.03
2018-09-20T15:42:53.243Z,2.20
2018-09-20T15:45:21.916Z,2.60
2018-09-20T15:47:50.793Z,3.20
2018-09-20T15:50:19.455Z,2.97
2018-09-20T15:52:48.135Z,2.80
2018-09-20T15:55:16.880Z,3.07
2018-09-20T15:57:45.553Z,2.70
2018-09-20T16:00:14.316Z,2.07
2018-09-20T16:02:42.964Z,2.53
2018-09-20T16:05:11.586Z,3.20
2018-09-20T16:07:40.231Z,3.13
2018-09-20T16:10:08.891Z,2.80
2018-09-20T16:12:37.554Z,2.70
2018-09-20T16:15:06.299Z,3.27
2018-09-20T16:17:34.935Z,2.57
2018-09-20T16:20:03.700Z,3.00
2018-09-20T16:22:32.361Z,2.80
2018-09-20T16:25:01.020Z,2.47
2018-09-20T16:27:29.663Z,3.20
2018-09-20T16:30:08.969Z,2.60
2018-09-20T16:33:05.089Z,3.17
2018-09-20T16:35:50.140Z,3.17
2018-09-20T16:38:30.907Z,2.70
2018-09-20T16:41:01.738Z,3.07
2018-09-20T16:43:30.547Z,3.13
2018-09-20T16:45:59.791Z,2.60
2018-09-20T16:48:28.415Z,2.60
2018-09-20T16:50:57.030Z,3.20
2018-09-20T16:53:26.113Z,3.30
2018-09-20T16:55:54.691Z,2.83
2018-09-20T16:58:23.295Z,4.10
2018-09-20T17:00:51.913Z,4.60
2018-09-20T17:03:20.554Z,4.87
2018-09-20T17:05:49.390Z,3.83
2018-09-20T17:08:18.004Z,4.47
2018-09-20T17:10:46.637Z,3.83
2018-09-20T17:13:15.489Z,3.80
2018-09-20T17:15:44.059Z,3.20
2018-09-20T17:18:12.681Z,3.40
2018-09-20T17:20:41.328Z,2.77
2018-09-20T17:23:09.928Z,2.90
2018-09-20T17:25:38.563Z,2.70
2018-09-20T17:28:07.202Z,2.80
2018-09-20T17:30:35.902Z,2.80
2018-09-20T17:33:04.572Z,3.20
2018-09-20T17:35:33.640Z,3.23
2018-09-20T17:38:03.443Z,2.80
2018-09-20T17:40:33.621Z,2.93
2018-09-20T17:43:04.910Z,3.30
2018-09-20T17:45:33.507Z,3.13
2018-09-20T17:48:02.112Z,3.60
2018-09-20T17:50:30.679Z,2.83
2018-09-20T17:52:59.759Z,2.80
2018-09-20T17:55:28.849Z,2.80
2018-09-20T17:57:57.911Z,2.97
2018-09-20T18:00:26.561Z,2.80
2018-09-20T18:02:55.508Z,2.60
2018-09-20T18:05:24.382Z,3.50
2018-09-20T18:07:53.697Z,3.20
2018-09-20T18:10:22.311Z,3.00
2018-09-20T18:12:50.903Z,3.13
2018-09-20T18:15:19.519Z,2.77
2018-09-20T18:17:48.209Z,3.60
2018-09-20T18:20:16.831Z,3.93
2018-09-20T18:22:45.435Z,2.70
2018-09-20T18:25:14.051Z,2.90
2018-09-20T18:27:42.703Z,3.27
2018-09-20T18:30:11.293Z,3.43
2018-09-20T18:32:40.100Z,2.90
2018-09-20T18:35:08.819Z,3.63
2018-09-20T18:37:38.599Z,5.33
2018-09-20T18:40:07.460Z,6.03
2018-09-20T18:42:36.122Z,4.80
2018-09-20T18:45:05.068Z,4.17
2018-09-20T18:47:33.963Z,4.10
2018-09-20T18:50:02.717Z,4.53
2018-09-20T18:52:31.299Z,4.23
2018-09-20T18:55:00.229Z,3.67
2018-09-20T18:57:28.844Z,3.87
2018-09-20T18:59:57.451Z,3.97
2018-09-20T19:02:26.107Z,3.40
2018-09-20T19:04:54.734Z,3.70
2018-09-20T19:07:23.741Z,3.27
2018-09-20T19:09:52.330Z,4.47
2018-09-20T19:12:20.940Z,4.10
2018-09-20T19:14:49.598Z,4.13
2018-09-20T19:17:18.280Z,3.87
2018-09-20T19:20:22.031Z,3.60
2018-09-20T19:22:50.718Z,4.30
2018-09-20T19:25:19.716Z,4.50
2018-09-20T19:27:48.347Z,3.97
2018-09-20T19:30:16.932Z,4.20
2018-09-20T19:32:45.567Z,4.13
2018-09-20T19:35:14.167Z,3.83
2018-09-20T19:37:42.799Z,4.70
2018-09-20T19:40:11.461Z,4.50
2018-09-20T19:42:40.130Z,4.90
2018-09-20T19:45:08.471Z,4.00
2018-09-20T19:47:37.171Z,3.97
2018-09-20T19:50:06.349Z,4.17
2018-09-20T19:52:35.047Z,4.07
2018-09-20T19:55:03.774Z,5.17
2018-09-20T19:57:32.415Z,4.77
2018-09-20T20:00:01.023Z,4.47
2018-09-20T20:02:29.635Z,4.80
2018-09-20T20:04:58.228Z,4.70
2018-09-20T20:07:26.887Z,5.00
2018-09-20T20:09:55.458Z,5.00
2018-09-20T20:12:24.043Z,4.30
2018-09-20T20:14:52.659Z,4.63
2018-09-20T20:17:21.463Z,5.50
2018-09-20T20:19:50.155Z,4.00
2018-09-20T20:22:18.702Z,4.57
2018-09-20T20:24:47.370Z,4.50
2018-09-20T20:27:15.949Z,4.40
2018-09-20T20:29:44.799Z,5.23
2018-09-20T20:32:13.394Z,5.00
2018-09-20T20:34:41.987Z,4.60
2018-09-20T20:37:10.582Z,4.00
2018-09-20T20:39:39.198Z,4.47
2018-09-20T20:42:07.739Z,4.50
2018-09-20T20:44:36.376Z,4.17
2018-09-20T20:47:04.978Z,5.93
2018-09-20T20:49:33.603Z,7.10
2018-09-20T20:52:02.190Z,5.10
2018-09-20T20:54:31.377Z,5.00
2018-09-20T20:57:00.630Z,4.10
2018-09-20T20:59:29.656Z,5.00
2018-09-20T21:01:58.978Z,4.90
2018-09-20T21:04:27.736Z,4.40
2018-09-20T21:06:56.391Z,4.43
2018-09-20T21:09:25.328Z,4.30
2018-09-20T21:11:53.923Z,4.70
2018-09-20T21:14:22.496Z,4.27
2018-09-20T21:16:51.163Z,4.53
2018-09-20T21:19:19.760Z,4.50
2018-09-20T21:21:48.379Z,4.93
2018-09-20T21:24:16.915Z,4.10
2018-09-20T21:26:45.515Z,4.40
2018-09-20T21:29:14.604Z,3.80
2018-09-20T21:31:43.175Z,4.27
2018-09-20T21:34:11.756Z,4.90
2018-09-20T21:36:40.430Z,5.87
2018-09-20T21:39:11.387Z,5.60
2018-09-20T21:41:40.687Z,4.07
2018-09-20T21:44:09.565Z,3.93
2018-09-20T21:46:38.251Z,4.03
2018-09-20T21:49:06.899Z,3.40
2018-09-20T21:51:35.914Z,4.57
2018-09-20T21:54:04.568Z,3.00
2018-09-20T21:56:33.182Z,3.60
2018-09-20T21:59:02.027Z,3.33
2018-09-20T22:01:36.039Z,3.57
2018-09-20T22:04:05.646Z,3.00
2018-09-20T22:06:35.495Z,2.70
2018-09-20T22:09:06.067Z,3.07
2018-09-20T22:11:34.664Z,3.40
2018-09-20T22:14:03.318Z,2.80
2018-09-20T22:16:31.898Z,3.53
2018-09-20T22:19:00.519Z,3.30
2018-09-20T22:21:29.121Z,3.50
2018-09-20T22:23:57.678Z,3.00
2018-09-20T22:26:26.327Z,3.30
2018-09-20T22:28:54.946Z,2.73
2018-09-20T22:31:23.775Z,2.87
2018-09-20T22:33:52.710Z,3.27
2018-09-20T22:36:21.338Z,3.90
2018-09-20T22:38:49.991Z,3.33
2018-09-20T22:41:18.949Z,2.50
2018-09-20T22:43:47.539Z,2.77
2018-09-20T22:46:16.131Z,2.73
2018-09-20T22:48:44.726Z,2.67
2018-09-20T22:51:13.289Z,2.90
2018-09-20T22:53:41.943Z,2.97
2018-09-20T22:56:10.567Z,3.00
2018-09-20T22:58:39.195Z,2.53
2018-09-20T23:01:07.938Z,2.67
2018-09-20T23:03:36.499Z,2.70
2018-09-20T23:06:05.835Z,3.27
2018-09-20T23:08:34.446Z,2.83
2018-09-20T23:11:03.002Z,3.20
2018-09-20T23:13:31.618Z,3.03
2018-09-20T23:16:00.195Z,3.40
2018-09-20T23:18:28.796Z,3.23
2018-09-20T23:20:57.366Z,3.70
2018-09-20T23:23:25.931Z,3.90
2018-09-20T23:25:54.555Z,4.13
2018-09-20T23:28:23.219Z,3.33
2018-09-20T23:30:51.933Z,3.47
2018-09-20T23:33:20.539Z,3.63
2018-09-20T23:35:49.140Z,3.73
2018-09-20T23:38:17.736Z,3.53
2018-09-20T23:40:46.376Z,3.40
2018-09-20T23:43:21.328Z,3.83
2018-09-20T23:45:50.734Z,4.00
2018-09-20T23:48:19.316Z,3.23
2018-09-20T23:50:47.927Z,3.60
2018-09-20T23:53:16.599Z,3.70
2018-09-20T23:55:45.154Z,3.60
2018-09-20T23:58:13.754Z,4.00
